createdAt,value
2019-03-02T00:01:32.919Z,7.30
2019-03-02T00:04:38.210Z,7.00
2019-03-02T00:07:43.915Z,7.40
2019-03-02T00:10:50.577Z,7.83
2019-03-02T00:13:55.853Z,7.43
2019-03-02T00:17:01.142Z,6.93
2019-03-02T00:20:06.562Z,7.37
2019-03-02T00:23:11.929Z,7.70
2019-03-02T00:26:17.278Z,7.10
2019-03-02T00:29:22.555Z,8.00
2019-03-02T00:32:27.953Z,7.50
2019-03-02T00:35:33.191Z,7.77
2019-03-02T00:38:40.644Z,7.70
2019-03-02T00:41:45.606Z,7.40
2019-03-02T00:45:03.205Z,7.77
2019-03-02T00:48:11.040Z,7.80
2019-03-02T00:51:15.561Z,7.67
2019-03-02T00:54:20.878Z,8.00
2019-03-02T00:57:26.184Z,7.73
2019-03-02T01:00:31.828Z,7.70
2019-03-02T01:03:37.049Z,8.07
2019-03-02T01:06:45.060Z,8.20
2019-03-02T01:09:49.349Z,7.40
2019-03-02T01:12:54.863Z,7.87
2019-03-02T01:16:00.121Z,6.67
2019-03-02T01:19:09.164Z,7.63
2019-03-02T01:22:16.561Z,7.13
2019-03-02T01:25:21.462Z,7.83
2019-03-02T01:28:26.744Z,7.40
2019-03-02T01:31:32.006Z,6.60
2019-03-02T01:34:38.732Z,6.67
2019-03-02T01:37:45.520Z,6.30
2019-03-02T01:40:50.857Z,7.00
2019-03-02T01:43:56.167Z,6.07
2019-03-02T01:47:01.529Z,5.90
2019-03-02T01:50:08.603Z,5.93
2019-03-02T01:53:15.236Z,6.40
2019-03-02T01:56:20.995Z,5.70
2019-03-02T01:59:26.473Z,5.57
2019-03-02T02:02:35.844Z,6.53
2019-03-02T02:05:39.744Z,5.63
2019-03-02T02:08:45.471Z,4.60
2019-03-02T02:11:53.390Z,5.07
2019-03-02T02:14:57.755Z,4.83
2019-03-02T02:18:03.011Z,5.47
2019-03-02T02:21:09.348Z,4.33
2019-03-02T02:24:14.642Z,5.00
2019-03-02T02:27:22.490Z,5.17
2019-03-02T02:30:27.527Z,5.40
2019-03-02T02:33:33.037Z,4.83
2019-03-02T02:36:38.358Z,5.50
2019-03-02T02:39:45.100Z,5.10
2019-03-02T02:42:50.390Z,4.90
2019-03-02T02:45:55.762Z,5.17
2019-03-02T02:49:05.381Z,4.90
2019-03-02T02:52:07.997Z,5.10
2019-03-02T02:55:13.475Z,5.30
2019-03-02T02:58:20.081Z,4.37
2019-03-02T03:01:32.963Z,4.73
2019-03-02T03:04:36.292Z,4.97
2019-03-02T03:07:39.342Z,4.47
2019-03-02T03:10:44.651Z,4.57
2019-03-02T03:13:49.920Z,4.40
2019-03-02T03:16:55.644Z,5.13
2019-03-02T03:20:10.296Z,5.03
2019-03-02T03:23:09.460Z,4.50
2019-03-02T03:26:14.708Z,5.20
2019-03-02T03:29:20.058Z,5.17
2019-03-02T03:32:25.398Z,5.00
2019-03-02T03:35:31.714Z,4.60
2019-03-02T03:38:37.081Z,5.33
2019-03-02T03:41:43.449Z,5.33
2019-03-02T03:44:49.544Z,5.20
2019-03-02T03:47:54.835Z,5.90
2019-03-02T03:51:00.144Z,5.47
2019-03-02T03:54:06.943Z,5.50
2019-03-02T03:57:16.967Z,5.50
2019-03-02T04:00:20.626Z,5.97
2019-03-02T04:03:25.872Z,6.10
2019-03-02T04:06:32.572Z,5.63
2019-03-02T04:09:37.922Z,5.30
2019-03-02T04:12:43.142Z,5.13
2019-03-02T04:15:48.459Z,5.43
2019-03-02T04:18:57.808Z,6.20
2019-03-02T04:22:06.253Z,5.33
2019-03-02T04:25:12.934Z,5.60
2019-03-02T04:28:17.087Z,5.70
2019-03-02T04:31:22.347Z,5.47
2019-03-02T04:34:27.630Z,6.00
2019-03-02T04:37:32.881Z,5.70
2019-03-02T04:40:38.167Z,5.13
2019-03-02T04:43:43.550Z,4.83
2019-03-02T04:46:51.355Z,4.93
2019-03-02T04:49:57.514Z,4.67
2019-03-02T04:53:02.842Z,4.63
2019-03-02T04:56:08.206Z,4.60
2019-03-02T04:59:18.659Z,4.97
2019-03-02T05:02:24.045Z,5.50
2019-03-02T05:05:29.286Z,4.67
2019-03-02T05:08:37.581Z,4.63
2019-03-02T05:11:41.522Z,5.70
2019-03-02T05:14:46.865Z,5.70
2019-03-02T05:17:52.140Z,4.83
2019-03-02T05:20:57.542Z,5.10
2019-03-02T05:24:08.881Z,5.63
2019-03-02T05:27:11.036Z,5.17
2019-03-02T05:30:16.355Z,5.57
2019-03-02T05:33:24.262Z,5.10
2019-03-02T05:36:28.633Z,5.57
2019-03-02T05:39:33.898Z,6.10
2019-03-02T05:42:39.127Z,6.40
2019-03-02T05:45:44.455Z,5.83
2019-03-02T05:48:49.820Z,6.10
2019-03-02T05:51:55.131Z,6.57
2019-03-02T05:55:00.482Z,5.80
2019-03-02T05:58:05.787Z,6.77
2019-03-02T06:01:11.133Z,6.90
2019-03-02T06:04:18.848Z,7.40
2019-03-02T06:07:23.678Z,6.30
2019-03-02T06:10:29.107Z,7.20
2019-03-02T06:13:36.435Z,7.20
2019-03-02T06:16:41.405Z,8.10
2019-03-02T06:19:46.673Z,8.00
2019-03-02T06:22:52.357Z,8.53
2019-03-02T06:25:59.019Z,8.63
2019-03-02T06:29:05.282Z,9.57
2019-03-02T06:32:10.571Z,10.03
2019-03-02T06:35:15.844Z,9.10
2019-03-02T06:38:21.203Z,9.90
2019-03-02T06:41:26.498Z,10.47
2019-03-02T06:44:34.125Z,11.80
2019-03-02T06:47:38.786Z,11.70
2019-03-02T06:50:44.080Z,12.57
2019-03-02T06:53:49.395Z,12.60
2019-03-02T06:56:57.813Z,15.00
2019-03-02T07:00:04.641Z,13.43
2019-03-02T07:03:10.160Z,15.00
2019-03-02T07:06:16.342Z,15.73
2019-03-02T07:09:21.695Z,14.67
2019-03-02T07:12:27.023Z,15.57
2019-03-02T07:15:32.346Z,15.30
2019-03-02T07:18:56.617Z,15.80
2019-03-02T07:22:01.932Z,16.77
2019-03-02T07:25:07.282Z,15.70
2019-03-02T07:28:12.575Z,16.37
2019-03-02T07:31:17.838Z,16.20
2019-03-02T07:34:23.233Z,17.40
2019-03-02T07:37:28.512Z,16.33
2019-03-02T07:40:33.838Z,18.23
2019-03-02T07:43:42.261Z,16.10
2019-03-02T07:46:47.945Z,17.20
2019-03-02T07:49:53.166Z,19.10
2019-03-02T07:52:58.538Z,17.00
2019-03-02T07:56:03.842Z,17.37
2019-03-02T07:59:09.220Z,18.90
2019-03-02T08:02:14.566Z,17.60
2019-03-02T08:05:21.027Z,17.77
2019-03-02T08:08:26.269Z,17.63
2019-03-02T08:11:31.566Z,16.30
2019-03-02T08:14:36.833Z,16.10
2019-03-02T08:17:42.078Z,17.47
2019-03-02T08:20:49.779Z,16.60
2019-03-02T08:23:55.027Z,17.03
2019-03-02T08:27:00.329Z,17.57
2019-03-02T08:30:07.126Z,15.03
2019-03-02T08:33:12.624Z,15.10
2019-03-02T08:36:18.273Z,15.27
2019-03-02T08:39:23.725Z,14.40
2019-03-02T08:42:29.032Z,14.57
2019-03-02T08:45:34.384Z,14.43
2019-03-02T08:48:39.691Z,14.43
2019-03-02T08:51:46.562Z,15.00
2019-03-02T08:54:53.536Z,14.40
2019-03-02T08:58:00.340Z,14.40
2019-03-02T09:01:06.504Z,14.40
2019-03-02T09:04:13.997Z,14.20
2019-03-02T09:07:18.776Z,13.50
2019-03-02T09:10:24.079Z,13.50
2019-03-02T09:13:30.911Z,12.77
2019-03-02T09:16:38.611Z,13.70
2019-03-02T09:19:43.505Z,12.57
2019-03-02T09:22:48.761Z,13.00
2019-03-02T09:25:54.141Z,12.37
2019-03-02T09:29:04.489Z,12.63
2019-03-02T09:32:06.522Z,11.00
2019-03-02T09:35:12.908Z,11.50
2019-03-02T09:38:20.968Z,11.60
2019-03-02T09:41:26.346Z,11.40
2019-03-02T09:44:32.816Z,11.30
2019-03-02T09:47:38.764Z,12.00
2019-03-02T09:50:44.056Z,12.83
2019-03-02T09:53:49.329Z,13.00
2019-03-02T09:56:54.622Z,14.00
2019-03-02T09:59:59.910Z,15.47
2019-03-02T10:03:05.213Z,16.00
2019-03-02T10:06:10.490Z,16.27
2019-03-02T10:09:15.746Z,16.67
2019-03-02T10:12:20.990Z,16.70
2019-03-02T10:15:26.322Z,17.90
2019-03-02T10:18:31.565Z,16.23
2019-03-02T10:21:47.400Z,16.90
2019-03-02T10:24:56.600Z,14.23
2019-03-02T10:28:01.909Z,16.47
2019-03-02T10:31:07.291Z,15.97
2019-03-02T10:34:12.636Z,16.43
2019-03-02T10:37:17.896Z,16.87
2019-03-02T10:40:23.531Z,18.40
2019-03-02T10:43:28.889Z,19.07
2019-03-02T10:46:34.151Z,20.53
2019-03-02T10:49:39.449Z,20.93
2019-03-02T10:52:45.876Z,22.50
2019-03-02T10:55:54.051Z,22.40
2019-03-02T10:58:59.291Z,20.90
2019-03-02T11:02:04.582Z,20.37
2019-03-02T11:05:25.906Z,20.23
2019-03-02T11:08:40.030Z,19.70
2019-03-02T11:12:13.556Z,21.53
2019-03-02T11:15:43.530Z,19.97
2019-03-02T11:18:59.655Z,20.97
2019-03-02T11:22:15.156Z,18.50
2019-03-02T11:25:40.939Z,18.30
2019-03-02T11:28:56.899Z,19.90
2019-03-02T11:32:20.421Z,18.20
2019-03-02T11:35:50.810Z,18.60
2019-03-02T11:39:07.708Z,19.40
2019-03-02T11:42:29.339Z,19.70
2019-03-02T11:45:52.459Z,17.70
2019-03-02T11:49:29.726Z,18.07
2019-03-02T11:52:47.667Z,18.03
2019-03-02T11:56:10.694Z,16.53
2019-03-02T11:59:53.508Z,16.40
2019-03-02T12:03:13.423Z,16.10
2019-03-02T12:06:43.235Z,15.53
2019-03-02T12:10:05.188Z,15.20
2019-03-02T12:13:34.765Z,16.50
2019-03-02T12:17:00.232Z,16.50
2019-03-02T12:20:23.735Z,18.67
2019-03-02T12:23:48.474Z,17.70
2019-03-02T12:27:11.053Z,19.13
2019-03-02T12:30:35.293Z,18.83
2019-03-02T12:33:54.116Z,19.73
2019-03-02T12:37:20.445Z,21.97
2019-03-02T12:40:43.471Z,23.50
2019-03-02T12:44:08.427Z,25.03
2019-03-02T12:47:51.304Z,25.50
2019-03-02T12:51:08.625Z,26.57
2019-03-02T12:54:39.191Z,27.00
2019-03-02T12:57:59.509Z,26.10
2019-03-02T13:01:21.300Z,25.43
2019-03-02T13:04:51.592Z,23.40
2019-03-02T13:08:28.215Z,24.10
2019-03-02T13:11:51.153Z,24.37
2019-03-02T13:15:09.390Z,25.00
2019-03-02T13:18:33.155Z,26.00
2019-03-02T13:21:51.756Z,24.33
2019-03-02T13:25:16.595Z,24.47
2019-03-02T13:28:37.098Z,23.47
2019-03-02T13:31:50.113Z,21.30
2019-03-02T13:35:12.933Z,21.13
2019-03-02T13:38:30.063Z,20.57
2019-03-02T13:41:56.515Z,20.50
2019-03-02T13:45:09.748Z,20.67
2019-03-02T13:48:52.274Z,19.10
2019-03-02T13:52:22.438Z,18.53
2019-03-02T13:56:04.776Z,18.37
2019-03-02T13:59:27.188Z,19.57
2019-03-02T14:03:10.706Z,18.60
2019-03-02T14:06:43.865Z,18.00
2019-03-02T14:09:57.740Z,19.37
2019-03-02T14:13:30.466Z,19.70
2019-03-02T14:16:55.406Z,18.90
2019-03-02T14:20:20.665Z,18.93
2019-03-02T14:23:54.868Z,17.47
2019-03-02T14:27:17.899Z,18.50
2019-03-02T14:30:32.214Z,16.33
2019-03-02T14:33:56.475Z,19.30
2019-03-02T14:37:19.294Z,18.37
2019-03-02T14:40:47.084Z,18.67
2019-03-02T14:44:11.384Z,17.80
2019-03-02T14:47:40.735Z,17.67
2019-03-02T14:51:20.726Z,17.83
2019-03-02T14:54:53.169Z,18.60
2019-03-02T14:58:21.672Z,17.83
2019-03-02T15:01:45.834Z,18.07
2019-03-02T15:05:20.308Z,18.50
2019-03-02T15:08:44.046Z,17.10
2019-03-02T15:12:12.586Z,18.10
2019-03-02T15:15:27.401Z,17.13
2019-03-02T15:19:02.363Z,16.93
2019-03-02T15:22:29.652Z,19.63
2019-03-02T15:25:52.770Z,17.70
2019-03-02T15:29:23.048Z,16.57
2019-03-02T15:32:53.284Z,17.57
2019-03-02T15:36:34.274Z,16.90
2019-03-02T15:40:01.119Z,16.83
2019-03-02T15:43:17.872Z,17.57
2019-03-02T15:46:32.220Z,16.77
2019-03-02T15:49:55.874Z,17.67
2019-03-02T15:53:20.247Z,17.00
2019-03-02T15:56:49.999Z,16.60
2019-03-02T16:00:18.129Z,18.07
2019-03-02T16:03:41.152Z,18.10
2019-03-02T16:07:08.314Z,16.13
2019-03-02T16:10:43.657Z,16.30
2019-03-02T16:14:09.952Z,17.07
2019-03-02T16:17:41.294Z,18.77
2019-03-02T16:20:58.272Z,16.37
2019-03-02T16:24:25.311Z,17.90
2019-03-02T16:27:49.471Z,18.07
2019-03-02T16:31:12.592Z,17.13
2019-03-02T16:34:36.914Z,17.13
2019-03-02T16:37:53.935Z,17.00
2019-03-02T16:41:16.995Z,17.60
2019-03-02T16:44:39.267Z,16.70
2019-03-02T16:48:19.204Z,16.87
2019-03-02T16:51:52.720Z,17.37
2019-03-02T16:55:15.878Z,16.73
2019-03-02T16:58:43.289Z,16.43
2019-03-02T17:02:10.678Z,16.53
2019-03-02T17:05:38.063Z,17.90
2019-03-02T17:09:00.801Z,16.57
2019-03-02T17:12:20.251Z,17.50
2019-03-02T17:15:50.587Z,17.73
2019-03-02T17:19:14.544Z,15.57
2019-03-02T17:22:41.853Z,16.80
2019-03-02T17:25:56.318Z,16.90
2019-03-02T17:29:12.121Z,17.77
2019-03-02T17:32:46.987Z,16.17
2019-03-02T17:36:20.507Z,16.57
2019-03-02T17:39:56.938Z,16.73
2019-03-02T17:43:32.188Z,15.53
2019-03-02T17:47:00.759Z,18.27
2019-03-02T17:50:24.099Z,17.63
2019-03-02T17:53:43.811Z,16.03
2019-03-02T17:57:13.918Z,21.50
2019-03-02T18:00:57.017Z,23.10
2019-03-02T18:04:35.402Z,18.60
2019-03-02T18:08:12.234Z,17.97
2019-03-02T18:11:35.923Z,16.30
2019-03-02T18:15:00.249Z,16.17
2019-03-02T18:18:05.736Z,16.53
2019-03-02T18:21:11.181Z,17.67
2019-03-02T18:24:16.525Z,18.60
2019-03-02T18:27:21.821Z,16.33
2019-03-02T18:30:27.078Z,18.63
2019-03-02T18:33:51.290Z,17.70
2019-03-02T18:36:56.688Z,17.67
2019-03-02T18:40:03.049Z,17.97
2019-03-02T18:43:09.572Z,18.43
2019-03-02T18:46:16.581Z,18.20
2019-03-02T18:49:40.068Z,18.10
2019-03-02T18:53:02.610Z,18.77
2019-03-02T18:56:08.116Z,39.50
2019-03-02T18:59:13.517Z,19.30
2019-03-02T19:02:18.859Z,17.33
2019-03-02T19:05:31.890Z,16.87
2019-03-02T19:08:37.118Z,17.33
2019-03-02T19:11:42.437Z,17.83
2019-03-02T19:14:47.744Z,20.00
2019-03-02T19:17:53.109Z,17.10
2019-03-02T19:20:58.394Z,17.93
2019-03-02T19:24:03.718Z,18.70
2019-03-02T19:27:09.042Z,17.77
2019-03-02T19:30:16.071Z,19.13
2019-03-02T19:33:21.515Z,18.00
2019-03-02T19:36:26.794Z,17.83
2019-03-02T19:39:32.214Z,18.33
2019-03-02T19:42:37.483Z,17.57
2019-03-02T19:45:42.838Z,18.10
2019-03-02T19:48:49.733Z,18.87
2019-03-02T19:51:56.588Z,19.83
2019-03-02T19:55:06.401Z,17.20
2019-03-02T19:58:11.817Z,18.47
2019-03-02T20:01:17.174Z,19.60
2019-03-02T20:04:22.508Z,19.30
2019-03-02T20:07:27.962Z,19.50
2019-03-02T20:10:33.378Z,19.83
2019-03-02T20:13:57.682Z,20.27
2019-03-02T20:17:03.283Z,20.23
2019-03-02T20:20:10.567Z,19.87
2019-03-02T20:23:15.874Z,19.93
2019-03-02T20:26:21.133Z,20.00
2019-03-02T20:29:26.446Z,20.30
2019-03-02T20:32:32.952Z,22.20
2019-03-02T20:35:39.889Z,20.60
2019-03-02T20:38:45.266Z,21.10
2019-03-02T20:41:50.575Z,19.43
2019-03-02T20:44:55.883Z,21.10
2019-03-02T20:48:01.219Z,19.67
2019-03-02T20:51:08.552Z,19.97
2019-03-02T20:54:13.818Z,18.63
2019-03-02T20:57:19.123Z,19.30
2019-03-02T21:00:26.239Z,18.50
2019-03-02T21:03:31.620Z,17.70
2019-03-02T21:06:36.953Z,16.63
2019-03-02T21:09:42.197Z,16.40
2019-03-02T21:12:48.486Z,16.40
2019-03-02T21:15:53.766Z,15.53
2019-03-02T21:19:02.653Z,16.17
2019-03-02T21:22:09.084Z,15.03
2019-03-02T21:25:14.822Z,15.37
2019-03-02T21:28:21.582Z,13.50
2019-03-02T21:31:26.923Z,14.90
2019-03-02T21:34:32.234Z,14.77
2019-03-02T21:37:37.573Z,13.90
2019-03-02T21:40:43.012Z,15.70
2019-03-02T21:43:48.321Z,14.97
2019-03-02T21:46:53.697Z,16.73
2019-03-02T21:49:58.954Z,16.57
2019-03-02T21:53:04.348Z,16.50
2019-03-02T21:56:09.588Z,18.10
2019-03-02T21:59:14.997Z,17.00
2019-03-02T22:02:20.311Z,18.20
2019-03-02T22:05:25.594Z,18.93
2019-03-02T22:08:31.859Z,20.43
2019-03-02T22:11:39.598Z,19.13
2019-03-02T22:14:46.394Z,19.90
2019-03-02T22:17:52.539Z,20.17
2019-03-02T22:20:58.006Z,21.77
2019-03-02T22:24:03.318Z,20.97
2019-03-02T22:27:08.608Z,20.33
2019-03-02T22:30:16.384Z,21.47
2019-03-02T22:33:24.696Z,21.23
2019-03-02T22:36:46.448Z,23.40
2019-03-02T22:40:08.651Z,21.77
2019-03-02T22:43:31.227Z,22.10
2019-03-02T22:46:40.055Z,20.93
2019-03-02T22:50:15.019Z,22.40
2019-03-02T22:53:25.736Z,21.53
2019-03-02T22:56:53.652Z,23.53
2019-03-02T23:00:58.004Z,22.00
2019-03-02T23:04:03.596Z,18.77
2019-03-02T23:07:08.876Z,21.70
2019-03-02T23:10:14.179Z,21.47
2019-03-02T23:13:19.537Z,22.60
2019-03-02T23:16:24.832Z,23.30
2019-03-02T23:19:30.292Z,23.53
2019-03-02T23:22:35.546Z,26.00
2019-03-02T23:25:40.877Z,28.20
2019-03-02T23:28:46.171Z,28.23
2019-03-02T23:31:51.430Z,27.00
2019-03-02T23:34:56.663Z,27.83
2019-03-02T23:38:01.953Z,25.93
2019-03-02T23:41:07.247Z,23.03
2019-03-02T23:44:13.996Z,22.97
2019-03-02T23:47:22.348Z,20.93
2019-03-02T23:50:27.692Z,20.40
2019-03-02T23:53:33.076Z,19.10
2019-03-02T23:56:38.558Z,16.60
2019-03-02T23:59:43.845Z,17.30
